YOBR weather

Old Bar Heritage Airport
New South Wales, Australia

Public forecast

Using degrees Celsius for public forecast. Weather courtesy of forecast.io.

METAR (pilot weather report)

Closest report is Taree Airport, 6.0 nm (11.2 km) NW. Retrieved 2019/02/20 10:00 UTC (1 hour ago):

YTRE 201000Z AUTO 08005KT 9999 // SCT099 24/20 Q1010

TAF (pilot weather forecast)

Forecast is more than 12 hours old.

Closest forecast is Taree Airport, 6.0 nm (11.2 km) NW. Retrieved 2019/02/19 19:03 UTC (16 hours ago):

TAF YTRE 191734Z 1919/2008 20005KT 9999 -SHRA SCT010 BKN018 FM192000 07005KT 9999 BKN025 FM200200 10013KT 9999 SCT035